createdAt,value
2022-12-11T00:00:30.308Z,84.78
2022-12-11T00:02:57.353Z,81.15
2022-12-11T00:05:24.547Z,85.22
2022-12-11T00:07:51.805Z,73.50
2022-12-11T00:10:19.074Z,93.30
2022-12-11T00:12:46.073Z,91.20
2022-12-11T00:15:13.401Z,85.25
2022-12-11T00:17:41.048Z,92.43
2022-12-11T00:20:09.183Z,92.05
2022-12-11T00:22:36.253Z,96.55
2022-12-11T00:25:04.632Z,88.10
2022-12-11T00:27:31.647Z,93.03
2022-12-11T00:29:58.671Z,94.70
2022-12-11T00:32:28.222Z,87.60
2022-12-11T00:34:55.590Z,91.22
2022-12-11T00:37:22.709Z,96.18
2022-12-11T00:39:49.806Z,98.70
2022-12-11T00:42:16.862Z,81.07
2022-12-11T00:44:43.945Z,93.90
2022-12-11T00:47:11.371Z,100.03
2022-12-11T00:49:38.462Z,82.82
2022-12-11T00:52:06.475Z,91.07
2022-12-11T00:54:34.926Z,87.70
2022-12-11T00:57:02.548Z,98.35
2022-12-11T00:59:29.619Z,72.38
2022-12-11T01:01:56.742Z,87.85
2022-12-11T01:04:23.771Z,96.65
2022-12-11T01:06:50.823Z,93.70
2022-12-11T01:09:36.689Z,84.07
2022-12-11T01:12:04.163Z,94.05
2022-12-11T01:14:32.061Z,90.68
2022-12-11T01:16:59.146Z,74.25
2022-12-11T01:19:26.286Z,97.45
2022-12-11T01:21:53.508Z,95.18
2022-12-11T01:24:20.632Z,90.22
2022-12-11T01:26:47.751Z,96.85
2022-12-11T01:29:14.781Z,76.30
2022-12-11T01:31:41.947Z,93.93
2022-12-11T01:34:08.990Z,100.65
2022-12-11T01:36:36.366Z,97.90
2022-12-11T01:39:07.246Z,88.07
2022-12-11T01:41:35.087Z,88.88
2022-12-11T01:44:28.319Z,97.68
2022-12-11T01:46:55.411Z,101.95
2022-12-11T01:49:27.498Z,112.60
2022-12-11T01:52:07.629Z,120.65
2022-12-11T01:54:36.293Z,102.68
2022-12-11T01:57:08.659Z,86.85
2022-12-11T01:59:43.887Z,117.43
2022-12-11T02:02:30.361Z,96.72
2022-12-11T02:04:59.222Z,103.43
2022-12-11T02:07:26.430Z,110.72
2022-12-11T02:09:53.566Z,109.78
2022-12-11T02:12:39.049Z,97.75
2022-12-11T02:15:19.422Z,109.07
2022-12-11T02:17:52.248Z,102.63
2022-12-11T02:20:38.067Z,111.60
2022-12-11T02:23:23.154Z,81.82
2022-12-11T02:26:05.796Z,89.05
2022-12-11T02:28:58.155Z,83.90
2022-12-11T02:31:36.252Z,83.80
2022-12-11T02:34:12.144Z,86.60
2022-12-11T02:36:43.449Z,79.30
2022-12-11T02:39:14.556Z,90.28
2022-12-11T02:41:46.680Z,106.50
2022-12-11T02:44:17.136Z,95.93
2022-12-11T02:46:45.278Z,110.85
2022-12-11T02:49:13.864Z,82.75
2022-12-11T02:51:43.011Z,92.88
2022-12-11T02:54:33.214Z,98.85
2022-12-11T02:57:06.589Z,88.55
2022-12-11T02:59:39.871Z,77.53
2022-12-11T03:02:07.644Z,91.40
2022-12-11T03:04:36.693Z,75.68
2022-12-11T03:07:13.380Z,97.00
2022-12-11T03:09:42.995Z,88.72
2022-12-11T03:12:12.729Z,91.13
2022-12-11T03:14:42.016Z,92.72
2022-12-11T03:17:36.257Z,79.72
2022-12-11T03:23:05.006Z,80.25
2022-12-11T03:25:43.691Z,89.70
2022-12-11T03:28:19.377Z,83.53
2022-12-11T03:30:51.235Z,77.40
2022-12-11T03:33:32.959Z,83.60
2022-12-11T03:36:06.464Z,84.40
2022-12-11T03:38:58.417Z,66.03
2022-12-11T03:41:27.633Z,82.15
2022-12-11T03:43:58.312Z,81.97
2022-12-11T03:46:31.855Z,72.55
2022-12-11T03:49:02.780Z,76.05
2022-12-11T03:51:32.367Z,84.00
2022-12-11T03:54:00.311Z,83.43
2022-12-11T03:56:30.762Z,81.60
2022-12-11T03:58:57.875Z,80.60
2022-12-11T04:01:25.017Z,67.00
2022-12-11T04:03:52.222Z,69.72
2022-12-11T04:06:19.546Z,70.53
2022-12-11T04:08:46.642Z,63.65
2022-12-11T04:11:32.251Z,73.65
2022-12-11T04:14:31.571Z,76.88
2022-12-11T04:17:00.097Z,73.97
2022-12-11T04:19:56.842Z,57.28
2022-12-11T04:22:26.925Z,63.47
2022-12-11T04:24:54.097Z,63.40
2022-12-11T04:27:39.880Z,55.42
2022-12-11T04:30:10.908Z,62.30
2022-12-11T04:32:38.009Z,59.60
2022-12-11T04:35:08.350Z,59.45
2022-12-11T04:37:38.133Z,67.25
2022-12-11T04:40:08.647Z,57.28
2022-12-11T04:42:35.992Z,59.35
2022-12-11T04:45:03.330Z,48.83
2022-12-11T04:47:30.389Z,53.90
2022-12-11T04:49:57.462Z,54.78
2022-12-11T04:52:24.467Z,47.88
2022-12-11T04:54:51.514Z,51.78
2022-12-11T04:57:20.682Z,47.00
2022-12-11T04:59:48.031Z,52.38
2022-12-11T05:02:16.124Z,48.72
2022-12-11T05:04:43.560Z,47.03
2022-12-11T05:07:11.007Z,44.03
2022-12-11T05:09:38.136Z,47.40
2022-12-11T05:12:08.460Z,48.63
2022-12-11T05:14:38.336Z,45.10
2022-12-11T05:17:06.498Z,48.83
2022-12-11T05:19:33.658Z,41.15
2022-12-11T05:22:00.837Z,46.50
2022-12-11T05:24:27.912Z,50.17
2022-12-11T05:26:55.035Z,41.78
2022-12-11T05:29:22.047Z,43.50
2022-12-11T05:31:49.079Z,43.97
2022-12-11T05:34:16.169Z,37.47
2022-12-11T05:36:43.204Z,39.53
2022-12-11T05:39:11.476Z,42.40
2022-12-11T05:41:38.825Z,49.67
2022-12-11T05:44:05.902Z,42.65
2022-12-11T05:46:33.146Z,41.40
2022-12-11T05:49:01.911Z,37.75
2022-12-11T05:51:29.912Z,36.22
2022-12-11T05:53:57.806Z,41.67
2022-12-11T05:56:27.894Z,41.25
2022-12-11T05:58:55.573Z,40.13
2022-12-11T06:01:37.913Z,38.35
2022-12-11T06:04:07.808Z,39.97
2022-12-11T06:06:36.302Z,29.73
2022-12-11T06:09:05.532Z,37.45
2022-12-11T06:11:34.372Z,38.17
2022-12-11T06:14:03.097Z,37.05
2022-12-11T06:16:30.229Z,41.50
2022-12-11T06:18:58.541Z,35.90
2022-12-11T06:21:28.650Z,43.85
2022-12-11T06:23:57.325Z,37.00
2022-12-11T06:26:24.641Z,37.38
2022-12-11T06:28:51.809Z,37.97
2022-12-11T06:31:19.385Z,35.42
2022-12-11T06:33:47.127Z,36.05
2022-12-11T06:36:19.828Z,39.92
2022-12-11T06:38:47.854Z,33.25
2022-12-11T06:41:15.754Z,35.88
2022-12-11T06:43:43.172Z,35.20
2022-12-11T06:46:15.949Z,37.15
2022-12-11T06:48:44.164Z,36.23
2022-12-11T06:51:14.703Z,31.20
2022-12-11T06:53:42.055Z,39.03
2022-12-11T06:56:11.633Z,36.78
2022-12-11T06:58:41.137Z,35.75
2022-12-11T07:01:23.170Z,39.35
2022-12-11T07:03:53.515Z,39.83
2022-12-11T07:06:20.525Z,42.88
2022-12-11T07:08:47.673Z,41.65
2022-12-11T07:11:16.563Z,37.83
2022-12-11T07:13:44.354Z,35.78
2022-12-11T07:16:13.369Z,40.42
2022-12-11T07:18:42.113Z,38.10
2022-12-11T07:21:11.949Z,37.78
2022-12-11T07:23:41.220Z,38.05
2022-12-11T07:26:12.467Z,41.33
2022-12-11T07:28:40.589Z,39.45
2022-12-11T07:31:13.217Z,41.95
2022-12-11T07:33:42.173Z,40.70
2022-12-11T07:36:11.343Z,41.85
2022-12-11T07:38:38.529Z,41.05
2022-12-11T07:41:08.771Z,43.30
2022-12-11T07:43:36.410Z,42.80
2022-12-11T07:46:15.694Z,41.83
2022-12-11T07:48:45.123Z,42.28
2022-12-11T07:51:31.743Z,44.05
2022-12-11T07:54:01.691Z,42.05
2022-12-11T07:56:30.260Z,45.15
2022-12-11T07:59:00.321Z,43.17
2022-12-11T08:01:32.099Z,44.50
2022-12-11T08:03:59.286Z,44.63
2022-12-11T08:06:30.039Z,44.33
2022-12-11T08:08:58.571Z,33.88
2022-12-11T08:11:26.072Z,44.22
2022-12-11T08:13:53.500Z,38.97
2022-12-11T08:16:21.083Z,42.38
2022-12-11T08:18:49.014Z,35.58
2022-12-11T08:21:18.467Z,35.13
2022-12-11T08:23:45.742Z,35.58
2022-12-11T08:26:15.509Z,35.95
2022-12-11T08:28:42.627Z,37.20
2022-12-11T08:31:11.435Z,34.33
2022-12-11T08:33:39.999Z,36.10
2022-12-11T08:36:09.233Z,41.60
2022-12-11T08:38:37.213Z,35.42
2022-12-11T08:41:19.517Z,34.13
2022-12-11T08:43:46.768Z,33.58
2022-12-11T08:46:14.924Z,39.63
2022-12-11T08:48:43.278Z,39.17
2022-12-11T08:51:15.696Z,39.80
2022-12-11T08:53:43.594Z,36.83
2022-12-11T08:56:14.477Z,34.13
2022-12-11T08:58:42.106Z,34.97
2022-12-11T09:01:12.243Z,36.05
2022-12-11T09:03:40.898Z,34.70
2022-12-11T09:06:10.655Z,36.33
2022-12-11T09:08:38.471Z,36.00
2022-12-11T09:11:11.026Z,35.13
2022-12-11T09:13:39.315Z,32.63
2022-12-11T09:16:09.533Z,31.58
2022-12-11T09:18:37.963Z,31.52
2022-12-11T09:21:16.956Z,32.80
2022-12-11T09:23:45.361Z,32.05
2022-12-11T09:26:15.426Z,27.40
2022-12-11T09:28:46.773Z,33.60
2022-12-11T09:31:17.175Z,32.08
2022-12-11T09:33:45.451Z,30.88
2022-12-11T09:36:13.226Z,39.45
2022-12-11T09:38:40.637Z,29.77
2022-12-11T09:41:40.823Z,34.75
2022-12-11T09:44:20.329Z,34.72
2022-12-11T09:46:48.734Z,26.92
2022-12-11T09:49:21.721Z,33.40
2022-12-11T09:52:11.763Z,32.63
2022-12-11T09:54:49.209Z,27.05
2022-12-11T09:57:45.529Z,27.58
2022-12-11T10:00:19.268Z,27.48
2022-12-11T10:05:42.853Z,33.30
2022-12-11T10:08:21.826Z,29.73
2022-12-11T10:10:58.743Z,31.00
2022-12-11T10:13:41.177Z,38.80
2022-12-11T10:16:31.330Z,32.35
2022-12-11T10:18:59.759Z,29.35
2022-12-11T10:21:33.991Z,28.20
2022-12-11T10:24:04.849Z,30.23
2022-12-11T10:26:31.946Z,30.23
2022-12-11T10:29:00.571Z,28.60
2022-12-11T10:31:38.234Z,29.48
2022-12-11T10:34:40.063Z,33.17
2022-12-11T10:37:07.100Z,32.58
2022-12-11T10:39:34.390Z,31.15
2022-12-11T10:42:15.977Z,29.20
2022-12-11T10:44:56.381Z,30.55
2022-12-11T10:47:23.457Z,28.15
2022-12-11T10:49:59.310Z,32.30
2022-12-11T10:52:31.712Z,32.25
2022-12-11T10:55:02.662Z,28.98
2022-12-11T10:57:35.642Z,29.40
2022-12-11T11:00:07.266Z,29.02
2022-12-11T11:02:41.698Z,28.00
2022-12-11T11:05:29.456Z,30.20
2022-12-11T11:08:16.054Z,30.58
2022-12-11T11:10:57.670Z,32.80
2022-12-11T11:13:27.720Z,28.00
2022-12-11T11:16:12.884Z,31.08
2022-12-11T11:18:41.953Z,28.08
2022-12-11T11:21:19.906Z,25.23
2022-12-11T11:23:51.907Z,30.38
2022-12-11T11:26:23.006Z,30.65
2022-12-11T11:28:56.417Z,27.63
2022-12-11T11:31:34.445Z,32.65
2022-12-11T11:34:10.935Z,23.48
2022-12-11T11:36:38.474Z,25.55
2022-12-11T11:39:26.243Z,28.17
2022-12-11T11:42:08.081Z,30.20
2022-12-11T11:44:41.875Z,32.25
2022-12-11T11:47:19.718Z,24.25
2022-12-11T11:50:08.844Z,25.25
2022-12-11T11:53:02.329Z,25.63
2022-12-11T11:55:40.203Z,23.58
2022-12-11T11:58:09.256Z,28.33
2022-12-11T12:00:36.313Z,21.58
2022-12-11T12:03:25.421Z,22.52
2022-12-11T12:06:25.558Z,22.95
2022-12-11T12:09:12.938Z,23.58
2022-12-11T12:11:51.871Z,25.65
2022-12-11T12:17:40.409Z,23.38
2022-12-11T12:20:44.762Z,25.85
2022-12-11T12:23:23.709Z,27.75
2022-12-11T12:26:07.350Z,25.00
2022-12-11T12:28:46.467Z,28.00
2022-12-11T12:31:22.036Z,27.77
2022-12-11T12:34:26.310Z,22.80
2022-12-11T12:37:11.706Z,23.90
2022-12-11T12:39:56.827Z,28.60
2022-12-11T12:42:36.142Z,24.70
2022-12-11T12:45:15.121Z,23.08
2022-12-11T12:47:47.728Z,26.10
2022-12-11T12:50:20.451Z,19.20
2022-12-11T12:52:48.729Z,32.70
2022-12-11T12:55:24.650Z,36.85
2022-12-11T12:57:53.538Z,32.67
2022-12-11T13:00:28.025Z,36.25
2022-12-11T13:02:56.295Z,26.20
2022-12-11T13:05:44.406Z,37.83
2022-12-11T13:08:13.415Z,41.60
2022-12-11T13:10:43.102Z,48.80
2022-12-11T13:13:32.974Z,46.47
2022-12-11T13:16:09.449Z,39.85
2022-12-11T13:18:39.254Z,48.83
2022-12-11T13:21:25.365Z,31.67
2022-12-11T13:23:52.550Z,42.72
2022-12-11T13:26:32.023Z,33.78
2022-12-11T13:28:59.245Z,27.08
2022-12-11T13:31:37.217Z,42.33
2022-12-11T13:34:21.278Z,37.85
2022-12-11T13:39:24.013Z,59.55
2022-12-11T13:41:58.628Z,28.77
2022-12-11T13:44:41.617Z,28.88
2022-12-11T13:47:14.820Z,74.78
2022-12-11T13:49:44.803Z,60.35
2022-12-11T13:52:23.250Z,30.08
2022-12-11T13:54:52.998Z,38.13
2022-12-11T13:57:30.339Z,27.83
2022-12-11T13:59:58.305Z,32.83
2022-12-11T14:02:42.470Z,30.50
2022-12-11T14:05:13.061Z,37.05
2022-12-11T14:08:03.595Z,31.13
2022-12-11T14:10:32.538Z,30.73
2022-12-11T14:12:59.551Z,35.03
2022-12-11T14:15:28.595Z,34.25
2022-12-11T14:17:57.926Z,37.53
2022-12-11T14:20:28.196Z,29.73
2022-12-11T14:23:28.800Z,36.65
2022-12-11T14:26:29.268Z,32.17
2022-12-11T14:28:56.487Z,50.55
2022-12-11T14:31:31.783Z,42.65
2022-12-11T14:34:08.940Z,39.33
2022-12-11T14:36:36.853Z,70.07
2022-12-11T14:39:16.025Z,37.40
2022-12-11T14:41:48.825Z,57.17
2022-12-11T14:44:19.066Z,44.70
2022-12-11T14:46:54.409Z,37.65
2022-12-11T14:49:27.098Z,40.75
2022-12-11T14:51:58.311Z,42.10
2022-12-11T14:54:41.373Z,44.97
2022-12-11T14:57:19.217Z,40.20
2022-12-11T14:59:47.973Z,40.58
2022-12-11T15:02:25.329Z,35.20
2022-12-11T15:05:19.944Z,46.05
2022-12-11T15:08:00.843Z,41.97
2022-12-11T15:10:42.263Z,69.60
2022-12-11T15:13:09.623Z,32.67
2022-12-11T15:15:56.238Z,47.10
2022-12-11T15:18:36.598Z,37.45
2022-12-11T15:21:07.092Z,40.92
2022-12-11T15:23:57.714Z,51.08
2022-12-11T15:26:45.797Z,38.00
2022-12-11T15:29:33.439Z,34.50
2022-12-11T15:32:01.699Z,31.90
2022-12-11T15:34:34.603Z,35.95
2022-12-11T15:37:02.087Z,46.60
2022-12-11T15:39:29.139Z,50.33
2022-12-11T15:41:56.366Z,42.85
2022-12-11T15:44:23.798Z,38.13
2022-12-11T15:46:50.848Z,37.80
2022-12-11T15:49:19.019Z,39.92
2022-12-11T15:51:46.092Z,37.75
2022-12-11T15:54:13.206Z,40.17
2022-12-11T15:56:40.412Z,53.28
2022-12-11T15:59:07.455Z,40.80
2022-12-11T16:01:35.843Z,45.55
2022-12-11T16:04:05.095Z,41.95
2022-12-11T16:06:33.136Z,36.83
2022-12-11T16:09:01.160Z,40.35
2022-12-11T16:11:28.375Z,50.13
2022-12-11T16:13:55.455Z,38.08
2022-12-11T16:16:22.671Z,40.80
2022-12-11T16:18:49.957Z,32.15
2022-12-11T16:21:21.423Z,34.92
2022-12-11T16:23:49.000Z,32.95
2022-12-11T16:26:16.042Z,37.67
2022-12-11T16:28:43.378Z,39.15
2022-12-11T16:31:12.040Z,34.72
2022-12-11T16:33:39.432Z,36.10
2022-12-11T16:36:17.989Z,38.28
2022-12-11T16:38:53.576Z,35.97
2022-12-11T16:41:22.915Z,33.33
2022-12-11T16:43:50.168Z,35.83
2022-12-11T16:46:19.652Z,33.92
2022-12-11T16:48:46.891Z,31.92
2022-12-11T16:51:14.357Z,29.05
2022-12-11T16:53:41.616Z,31.15
2022-12-11T16:56:09.303Z,38.70
2022-12-11T16:58:36.443Z,34.05
2022-12-11T17:01:14.703Z,29.70
2022-12-11T17:03:46.288Z,41.75
2022-12-11T17:06:15.663Z,37.97
2022-12-11T17:08:43.264Z,33.45
2022-12-11T17:11:18.344Z,36.15
2022-12-11T17:13:45.824Z,37.00
2022-12-11T17:16:16.591Z,36.80
2022-12-11T17:18:43.796Z,30.70
2022-12-11T17:21:13.745Z,33.03
2022-12-11T17:23:41.446Z,33.67
2022-12-11T17:26:09.791Z,32.67
2022-12-11T17:28:38.003Z,34.42
2022-12-11T17:31:08.286Z,37.33
2022-12-11T17:33:36.052Z,32.17
2022-12-11T17:36:05.615Z,29.73
2022-12-11T17:38:33.183Z,32.88
2022-12-11T17:41:00.225Z,28.40
2022-12-11T17:43:27.323Z,36.78
2022-12-11T17:45:55.278Z,32.67
2022-12-11T17:48:22.701Z,29.77
2022-12-11T17:50:51.078Z,31.33
2022-12-11T17:53:20.396Z,30.05
2022-12-11T17:55:48.393Z,30.70
2022-12-11T17:58:18.737Z,31.38
2022-12-11T18:00:48.333Z,39.20
2022-12-11T18:03:15.646Z,29.88
2022-12-11T18:05:45.794Z,27.60
2022-12-11T18:08:17.564Z,33.58
2022-12-11T18:10:45.132Z,29.15
2022-12-11T18:13:13.176Z,31.80
2022-12-11T18:15:41.115Z,28.40
2022-12-11T18:18:08.285Z,31.15
2022-12-11T18:20:37.369Z,26.15
2022-12-11T18:23:07.845Z,71.03
2022-12-11T18:25:35.921Z,52.95
2022-12-11T18:28:03.211Z,78.53
2022-12-11T18:30:30.294Z,70.53
2022-12-11T18:32:57.531Z,102.43
2022-12-11T18:35:25.391Z,61.45
2022-12-11T18:37:52.461Z,38.00
2022-12-11T18:40:19.848Z,27.92
2022-12-11T18:42:46.871Z,27.95
2022-12-11T18:45:14.456Z,48.28
2022-12-11T18:47:41.712Z,35.88
2022-12-11T18:50:08.877Z,33.35
2022-12-11T18:52:35.950Z,27.33
2022-12-11T18:55:04.577Z,29.70
2022-12-11T18:57:31.681Z,32.80
2022-12-11T19:00:06.960Z,75.90
2022-12-11T19:02:38.174Z,55.55
2022-12-11T19:05:06.037Z,37.70
2022-12-11T19:07:33.114Z,101.78
2022-12-11T19:10:00.259Z,67.88
2022-12-11T19:12:28.164Z,149.68
2022-12-11T19:14:55.476Z,125.63
2022-12-11T19:17:22.739Z,67.00
2022-12-11T19:19:50.341Z,64.63
2022-12-11T19:22:17.663Z,64.22
2022-12-11T19:24:45.018Z,42.55
2022-12-11T19:27:13.823Z,50.30
2022-12-11T19:29:41.363Z,45.70
2022-12-11T19:32:08.449Z,46.03
2022-12-11T19:34:38.453Z,32.53
2022-12-11T19:37:06.557Z,45.40
2022-12-11T19:39:34.629Z,35.97
2022-12-11T19:42:01.698Z,29.02
2022-12-11T19:44:28.908Z,27.40
2022-12-11T19:46:56.154Z,29.00
2022-12-11T19:49:23.344Z,19.65
2022-12-11T19:51:51.328Z,22.25
2022-12-11T19:54:18.672Z,21.73
2022-12-11T19:56:46.062Z,30.13
2022-12-11T19:59:16.567Z,29.58
2022-12-11T20:01:46.763Z,26.60
2022-12-11T20:04:16.316Z,17.77
2022-12-11T20:06:45.862Z,18.88
2022-12-11T20:09:14.255Z,22.10
2022-12-11T20:11:43.872Z,27.85
2022-12-11T20:14:22.285Z,23.38
2022-12-11T20:19:37.436Z,36.10
2022-12-11T20:22:05.631Z,25.92
2022-12-11T20:24:33.302Z,28.45
2022-12-11T20:27:00.343Z,31.27
2022-12-11T20:29:27.806Z,39.60
2022-12-11T20:31:55.058Z,23.70
2022-12-11T20:34:22.220Z,24.95
2022-12-11T20:36:49.526Z,39.15
2022-12-11T20:39:16.682Z,27.30
2022-12-11T20:41:43.843Z,23.35
2022-12-11T20:44:13.650Z,23.55
2022-12-11T20:46:46.386Z,25.52
2022-12-11T20:49:13.564Z,25.40
2022-12-11T20:51:41.214Z,23.67
2022-12-11T20:54:08.423Z,27.52
2022-12-11T20:56:36.115Z,26.85
2022-12-11T20:59:03.380Z,24.02
2022-12-11T21:01:32.181Z,28.67
2022-12-11T21:04:00.193Z,30.90
2022-12-11T21:06:33.223Z,34.30
2022-12-11T21:09:02.248Z,22.60
2022-12-11T21:11:29.435Z,24.88
2022-12-11T21:13:56.630Z,28.50
2022-12-11T21:16:24.353Z,26.80
2022-12-11T21:18:52.031Z,31.55
2022-12-11T21:21:19.155Z,22.48
2022-12-11T21:23:46.239Z,21.58
2022-12-11T21:26:13.717Z,24.55
2022-12-11T21:28:41.461Z,24.50
2022-12-11T21:31:12.918Z,27.58
2022-12-11T21:33:40.155Z,24.33
2022-12-11T21:36:09.474Z,28.25
2022-12-11T21:38:37.208Z,25.23
2022-12-11T21:41:15.654Z,21.27
2022-12-11T21:44:14.511Z,25.52
2022-12-11T21:46:32.918Z,26.42
2022-12-11T21:49:00.085Z,28.48
2022-12-11T21:51:36.465Z,22.25
2022-12-11T21:54:09.127Z,22.98
2022-12-11T21:56:36.349Z,26.88
2022-12-11T21:59:03.667Z,22.25
2022-12-11T22:01:35.780Z,24.83
2022-12-11T22:04:08.186Z,38.90
2022-12-11T22:06:40.153Z,29.05
2022-12-11T22:09:07.507Z,21.60
2022-12-11T22:11:39.959Z,21.83
2022-12-11T22:14:07.466Z,22.30
2022-12-11T22:16:35.955Z,22.67
2022-12-11T22:19:03.108Z,26.33
2022-12-11T22:21:30.251Z,23.08
2022-12-11T22:23:57.673Z,25.50
2022-12-11T22:26:26.737Z,27.15
2022-12-11T22:28:54.683Z,26.30
2022-12-11T22:31:23.868Z,24.95
2022-12-11T22:33:53.838Z,23.23
2022-12-11T22:36:23.138Z,23.40
2022-12-11T22:38:50.269Z,22.67
2022-12-11T22:41:25.601Z,20.50
2022-12-11T22:43:53.347Z,22.73
2022-12-11T22:46:23.888Z,25.00
2022-12-11T22:48:52.065Z,27.73
2022-12-11T22:51:19.461Z,21.58
2022-12-11T22:53:46.705Z,19.38
2022-12-11T22:56:14.310Z,23.45
2022-12-11T22:58:42.043Z,23.30
2022-12-11T23:01:15.774Z,26.85
2022-12-11T23:06:15.881Z,20.98
2022-12-11T23:08:44.127Z,25.13
2022-12-11T23:11:17.500Z,22.60
2022-12-11T23:13:44.627Z,23.92
2022-12-11T23:16:12.624Z,23.08
2022-12-11T23:18:40.519Z,22.73
2022-12-11T23:21:08.889Z,24.02
2022-12-11T23:23:36.178Z,23.35
2022-12-11T23:26:05.647Z,25.92
2022-12-11T23:28:32.688Z,25.88
2022-12-11T23:30:59.777Z,25.17
2022-12-11T23:33:26.957Z,24.77
2022-12-11T23:35:54.250Z,24.60
2022-12-11T23:38:21.333Z,22.55
2022-12-11T23:40:48.699Z,25.23
2022-12-11T23:43:15.891Z,23.38
2022-12-11T23:45:44.757Z,21.45
2022-12-11T23:48:12.964Z,22.65
2022-12-11T23:50:42.128Z,28.88
2022-12-11T23:53:10.004Z,27.58
2022-12-11T23:55:40.996Z,26.10
2022-12-11T23:58:08.202Z,24.17
